Time;durP1;ratioP1;P1;durP2;ratioP2;P2;SDS_P1;SDS_P2;PMS_P1;PMS_P2;Temp;Humidity;BMP_temperature;BMP_pressure;BME280_temperature;BME280_humidity;BME280_pressure;Samples;Min_cycle;Max_cycle;Signal;HPM_P1;HPM_P2
2023/05/07 00:01:48;;;;;;;3.85;2.00;;;15.70;99.90;;;;;;5033782;28;20057;-39
2023/05/07 00:04:14;;;;;;;3.17;2.00;;;15.70;99.90;;;;;;5033725;28;20471;-40
2023/05/07 00:06:40;;;;;;;5.85;2.17;;;15.70;99.90;;;;;;5033076;28;20431;-39
2023/05/07 00:09:06;;;;;;;5.07;1.80;;;15.70;99.90;;;;;;5033392;28;20082;-39
2023/05/07 00:11:32;;;;;;;2.83;1.65;;;15.70;99.90;;;;;;5033560;28;20398;-39
2023/05/07 00:13:57;;;;;;;2.80;1.73;;;15.70;99.90;;;;;;5033505;28;20083;-39
2023/05/07 00:16:23;;;;;;;4.15;1.67;;;15.70;99.90;;;;;;5032878;28;20025;-42
2023/05/07 00:18:49;;;;;;;2.80;1.48;;;15.70;99.90;;;;;;5033542;28;20041;-38
2023/05/07 00:21:14;;;;;;;5.78;2.50;;;15.70;99.90;;;;;;5033440;28;20491;-39
2023/05/07 00:23:40;;;;;;;3.25;1.67;;;15.60;99.90;;;;;;5033227;28;20048;-40
2023/05/07 00:26:05;;;;;;;2.45;1.73;;;15.60;99.90;;;;;;5031815;28;20029;-40
2023/05/07 00:28:31;;;;;;;5.75;1.67;;;15.60;99.90;;;;;;5032926;28;20398;-40
2023/05/07 00:30:57;;;;;;;2.13;1.35;;;15.60;99.90;;;;;;5033300;28;20037;-39
2023/05/07 00:33:22;;;;;;;2.90;1.60;;;15.60;99.90;;;;;;5033216;28;20359;-40
2023/05/07 00:35:48;;;;;;;4.85;1.60;;;15.60;99.90;;;;;;5032577;28;20490;-41
2023/05/07 00:38:14;;;;;;;2.38;1.40;;;15.60;99.90;;;;;;5032956;28;20029;-40
2023/05/07 00:40:40;;;;;;;3.28;1.55;;;15.60;99.90;;;;;;5033309;28;20382;-41
2023/05/07 00:43:06;;;;;;;2.47;1.65;;;15.60;99.90;;;;;;5032945;28;20021;-42
2023/05/07 00:45:33;;;;;;;3.25;1.58;;;15.60;99.90;;;;;;5032877;28;20037;-40
2023/05/07 00:48:00;;;;;;;2.53;1.55;;;15.60;99.90;;;;;;5032383;28;20025;-39
2023/05/07 00:50:27;;;;;;;2.47;1.55;;;15.60;99.90;;;;;;5032945;28;20025;-40
2023/05/07 00:52:53;;;;;;;3.58;1.42;;;15.60;99.90;;;;;;5014990;28;20017;-39
2023/05/07 00:55:19;;;;;;;2.50;1.63;;;15.60;99.90;;;;;;5032759;28;20040;-43
2023/05/07 00:57:45;;;;;;;3.85;1.15;;;15.60;99.90;;;;;;5032229;28;20104;-39
2023/05/07 01:00:12;;;;;;;7.60;1.85;;;15.60;99.90;;;;;;5032689;28;20409;-40
2023/05/07 01:02:41;;;;;;;3.03;1.70;;;15.60;99.90;;;;;;5033011;28;20032;-39
2023/05/07 01:05:09;;;;;;;2.28;1.42;;;15.60;99.90;;;;;;5032446;28;20387;-39
2023/05/07 01:07:36;;;;;;;3.97;1.75;;;15.60;99.90;;;;;;5031891;28;20474;-40
2023/05/07 01:10:04;;;;;;;3.03;1.55;;;15.60;99.90;;;;;;5032514;28;20052;-40
2023/05/07 01:12:30;;;;;;;4.10;1.88;;;15.50;99.90;;;;;;5032220;28;20028;-40
2023/05/07 01:14:56;;;;;;;4.10;1.30;;;15.50;99.90;;;;;;5032361;28;20097;-40
2023/05/07 01:17:22;;;;;;;4.53;1.70;;;15.50;99.90;;;;;;5031917;28;20371;-40
2023/05/07 01:19:48;;;;;;;4.38;1.70;;;15.50;99.90;;;;;;5032145;28;20132;-39
2023/05/07 01:22:16;;;;;;;3.42;1.35;;;15.50;99.90;;;;;;5032233;28;20018;-39
2023/05/07 01:24:42;;;;;;;2.40;1.50;;;15.50;99.90;;;;;;5032329;28;20048;-39
2023/05/07 01:27:08;;;;;;;2.38;1.52;;;15.50;99.90;;;;;;5031713;28;20032;-40
2023/05/07 01:29:34;;;;;;;5.78;1.70;;;15.50;99.90;;;;;;5031970;28;20029;-39
2023/05/07 01:32:01;;;;;;;2.30;1.40;;;15.50;99.90;;;;;;5032088;28;20125;-39
2023/05/07 01:34:29;;;;;;;2.85;1.58;;;15.50;99.90;;;;;;5031888;28;20018;-40
2023/05/07 01:36:57;;;;;;;4.65;1.60;;;15.50;99.90;;;;;;5031640;28;20029;-40
2023/05/07 01:39:25;;;;;;;4.93;1.60;;;15.50;99.90;;;;;;5031894;28;20024;-40
2023/05/07 01:41:51;;;;;;;4.50;1.75;;;15.50;99.90;;;;;;5031829;28;20032;-40
2023/05/07 01:44:18;;;;;;;2.47;1.60;;;15.50;99.90;;;;;;5031768;28;20037;-40
2023/05/07 01:46:44;;;;;;;3.13;1.60;;;15.50;99.90;;;;;;5031101;28;20075;-40
2023/05/07 01:49:10;;;;;;;3.20;1.60;;;15.40;99.90;;;;;;5031557;28;20813;-40
2023/05/07 01:51:36;;;;;;;4.25;1.75;;;15.50;99.90;;;;;;5031634;28;20032;-40
2023/05/07 01:54:01;;;;;;;3.10;1.50;;;15.50;99.90;;;;;;5031624;28;20014;-40
2023/05/07 01:56:27;;;;;;;2.97;1.63;;;15.50;99.90;;;;;;5030971;28;20026;-40
2023/05/07 01:58:52;;;;;;;3.05;1.65;;;15.40;99.90;;;;;;5031500;28;20534;-40
2023/05/07 02:01:18;;;;;;;2.22;1.50;;;15.40;99.90;;;;;;5031475;28;20033;-40
2023/05/07 02:03:44;;;;;;;5.75;1.85;;;15.40;99.90;;;;;;5031765;28;20086;-40
2023/05/07 02:06:10;;;;;;;3.50;1.45;;;15.40;99.90;;;;;;5030816;28;20037;-39
2023/05/07 02:08:35;;;;;;;4.18;1.60;;;15.40;99.90;;;;;;5031265;28;20029;-40
2023/05/07 02:11:01;;;;;;;4.88;1.50;;;15.40;99.90;;;;;;5031325;28;20025;-39
2023/05/07 02:13:30;;;;;;;5.35;1.48;;;15.40;99.90;;;;;;5031321;28;20021;-40
2023/05/07 02:15:56;;;;;;;2.25;1.23;;;15.40;99.90;;;;;;5030736;28;20494;-40
2023/05/07 02:18:21;;;;;;;2.33;1.52;;;15.40;99.90;;;;;;5031206;28;20091;-40
2023/05/07 02:20:47;;;;;;;3.97;1.65;;;15.40;99.90;;;;;;5031252;28;20398;-40
2023/05/07 02:23:12;;;;;;;4.45;2.00;;;15.40;99.90;;;;;;5031232;28;20032;-40
2023/05/07 02:25:38;;;;;;;2.30;1.63;;;15.40;99.90;;;;;;5031071;28;20100;-40
2023/05/07 02:28:04;;;;;;;5.10;1.85;;;15.30;99.90;;;;;;5030751;28;20536;-40
2023/05/07 02:30:29;;;;;;;3.50;1.55;;;15.40;99.90;;;;;;5031119;28;20035;-39
2023/05/07 02:32:55;;;;;;;3.17;1.90;;;15.40;99.90;;;;;;5031458;28;20387;-40
2023/05/07 02:35:20;;;;;;;5.07;1.60;;;15.30;99.90;;;;;;5030839;28;20025;-39
2023/05/07 02:37:46;;;;;;;4.28;1.48;;;15.30;99.90;;;;;;5030569;28;20022;-41
2023/05/07 02:40:12;;;;;;;4.43;1.60;;;15.30;99.90;;;;;;5030985;28;20040;-40
2023/05/07 02:42:37;;;;;;;2.70;1.50;;;15.30;99.90;;;;;;5030979;28;20125;-40
2023/05/07 02:45:03;;;;;;;2.83;1.63;;;15.30;99.90;;;;;;5030821;28;20457;-39
2023/05/07 02:47:29;;;;;;;6.25;1.90;;;15.30;99.90;;;;;;5030498;28;20025;-40
2023/05/07 02:49:55;;;;;;;2.38;1.50;;;15.30;99.90;;;;;;5034993;28;20033;-39
2023/05/07 02:52:21;;;;;;;3.00;1.60;;;15.30;99.90;;;;;;5035017;28;20036;-39
2023/05/07 02:54:47;;;;;;;2.72;1.80;;;15.30;99.90;;;;;;5034902;28;20041;-40
2023/05/07 02:57:13;;;;;;;3.72;1.60;;;15.30;99.90;;;;;;5034354;28;20454;-40
2023/05/07 02:59:38;;;;;;;4.95;1.70;;;15.30;99.90;;;;;;5035268;28;20083;-39
2023/05/07 03:02:04;;;;;;;5.10;1.50;;;15.30;99.90;;;;;;5034719;28;20079;-40
2023/05/07 03:04:29;;;;;;;2.30;1.55;;;15.30;99.90;;;;;;5034955;28;20486;-40
2023/05/07 03:06:55;;;;;;;3.25;1.50;;;15.30;99.90;;;;;;5034224;28;20082;-41
2023/05/07 03:09:21;;;;;;;3.33;1.63;;;15.20;99.90;;;;;;5034610;28;20034;-42
2023/05/07 03:11:46;;;;;;;4.05;1.95;;;15.30;99.90;;;;;;5034695;28;20467;-40
2023/05/07 03:14:12;;;;;;;4.03;1.50;;;15.30;99.90;;;;;;5034621;28;20025;-39
2023/05/07 03:16:38;;;;;;;7.63;1.70;;;15.30;99.90;;;;;;5033899;28;20079;-40
2023/05/07 03:19:04;;;;;;;5.93;1.70;;;15.20;99.90;;;;;;5034595;28;20029;-39
2023/05/07 03:21:30;;;;;;;2.38;1.33;;;15.20;99.90;;;;;;5017011;28;20398;-40
2023/05/07 03:23:56;;;;;;;4.93;1.90;;;15.20;99.90;;;;;;5034467;28;20029;-40
2023/05/07 03:26:22;;;;;;;1.80;1.45;;;15.20;99.90;;;;;;5034251;28;20032;-40
2023/05/07 03:28:47;;;;;;;3.88;1.63;;;15.20;99.90;;;;;;5034250;28;20029;-42
2023/05/07 03:31:13;;;;;;;3.50;1.80;;;15.20;99.90;;;;;;5034245;28;20021;-39
2023/05/07 03:33:56;;;;;;;3.53;1.60;;;15.20;99.90;;;;;;5034430;28;20034;-40
2023/05/07 03:36:22;;;;;;;4.72;1.80;;;15.20;99.90;;;;;;5015762;28;20034;-40
2023/05/07 03:38:49;;;;;;;3.65;1.63;;;15.20;99.90;;;;;;5034138;28;20032;-42
2023/05/07 03:41:15;;;;;;;3.78;1.38;;;15.20;99.90;;;;;;5034261;28;20025;-40
2023/05/07 03:43:40;;;;;;;2.50;1.60;;;15.20;99.90;;;;;;5034111;28;20025;-39
2023/05/07 03:46:06;;;;;;;2.50;1.70;;;15.10;99.90;;;;;;5033571;28;20072;-40
2023/05/07 03:48:31;;;;;;;5.85;1.50;;;15.20;99.90;;;;;;5033897;28;20394;-40
2023/05/07 03:50:58;;;;;;;2.45;1.85;;;15.20;99.90;;;;;;5033957;28;20108;-39
2023/05/07 03:53:24;;;;;;;2.88;1.60;;;15.20;99.90;;;;;;5033900;28;20426;-40
2023/05/07 03:55:49;;;;;;;5.10;1.50;;;15.20;99.90;;;;;;5033374;28;20540;-39
2023/05/07 03:58:15;;;;;;;3.65;1.65;;;15.10;99.90;;;;;;5033628;28;20025;-41
2023/05/07 04:00:41;;;;;;;4.32;1.63;;;15.20;99.90;;;;;;5033735;28;20036;-39
2023/05/07 04:03:07;;;;;;;2.75;1.52;;;15.10;99.90;;;;;;5033697;28;20038;-39
2023/05/07 04:05:33;;;;;;;2.63;1.40;;;15.10;99.90;;;;;;5033623;28;20042;-40
2023/05/07 04:07:59;;;;;;;3.03;1.40;;;15.10;99.90;;;;;;5033096;28;20032;-38
2023/05/07 04:10:24;;;;;;;6.43;1.65;;;15.10;99.90;;;;;;5033669;28;20022;-39
2023/05/07 04:12:50;;;;;;;5.72;1.73;;;15.10;99.90;;;;;;5033453;28;20159;-40
2023/05/07 04:15:16;;;;;;;5.93;1.40;;;15.10;99.90;;;;;;5033466;28;20084;-39
2023/05/07 04:17:41;;;;;;;4.22;1.40;;;15.10;99.90;;;;;;5032980;28;20053;-40
2023/05/07 04:20:14;;;;;;;3.30;1.40;;;15.10;99.90;;;;;;5033492;28;20033;-40
2023/05/07 04:22:40;;;;;;;2.78;1.27;;;15.10;99.90;;;;;;5033338;28;20517;-39
2023/05/07 04:25:06;;;;;;;4.57;1.90;;;15.10;99.90;;;;;;5033257;28;20034;-40
2023/05/07 04:27:32;;;;;;;2.70;1.35;;;15.10;99.90;;;;;;5032678;28;20033;-38
2023/05/07 04:29:57;;;;;;;4.50;1.58;;;15.10;99.90;;;;;;5033229;28;20386;-38
2023/05/07 04:32:24;;;;;;;2.65;1.50;;;15.10;99.90;;;;;;5033184;28;20100;-40
2023/05/07 04:34:50;;;;;;;3.78;1.23;;;15.10;99.90;;;;;;5033125;28;20092;-39
2023/05/07 04:37:16;;;;;;;5.55;1.73;;;15.10;99.90;;;;;;5032374;28;20565;-40
2023/05/07 04:39:41;;;;;;;2.88;1.80;;;15.10;99.90;;;;;;5032947;28;20021;-40
2023/05/07 04:42:08;;;;;;;4.65;1.60;;;15.10;99.90;;;;;;5032904;28;20025;-39
2023/05/07 04:44:35;;;;;;;3.00;1.50;;;15.10;99.90;;;;;;5032943;28;20026;-40
2023/05/07 04:47:00;;;;;;;2.20;1.48;;;15.00;99.90;;;;;;5032345;28;20041;-40
2023/05/07 04:49:26;;;;;;;5.20;1.60;;;15.00;99.90;;;;;;5032791;28;20033;-42
2023/05/07 04:51:52;;;;;;;2.65;1.58;;;15.00;99.90;;;;;;5014937;28;20475;-39
2023/05/07 04:54:18;;;;;;;1.73;1.20;;;15.10;99.90;;;;;;5032756;28;20036;-40
2023/05/07 04:56:43;;;;;;;3.33;1.33;;;15.10;99.90;;;;;;5032127;28;20435;-39
2023/05/07 04:59:09;;;;;;;2.40;1.20;;;15.00;99.90;;;;;;5032911;28;20201;-40
2023/05/07 05:01:35;;;;;;;2.03;1.42;;;15.00;99.90;;;;;;5032659;28;20025;-40
2023/05/07 05:04:00;;;;;;;2.22;1.48;;;15.00;99.90;;;;;;5032552;28;20060;-40
2023/05/07 05:06:26;;;;;;;2.28;1.40;;;15.10;99.90;;;;;;5031933;28;20029;-42
2023/05/07 05:08:52;;;;;;;7.00;1.60;;;15.00;99.90;;;;;;5032371;28;20028;-40
2023/05/07 05:11:17;;;;;;;3.10;1.60;;;15.00;99.90;;;;;;5031921;28;20037;-39
2023/05/07 05:13:43;;;;;;;1.83;1.45;;;15.00;99.90;;;;;;5032678;28;20037;-40
2023/05/07 05:16:08;;;;;;;3.25;1.25;;;15.00;99.90;;;;;;5031846;28;20030;-40
2023/05/07 05:18:34;;;;;;;3.13;1.50;;;15.10;99.90;;;;;;5032264;28;20029;-43
2023/05/07 05:21:00;;;;;;;2.47;1.40;;;15.00;99.90;;;;;;5032222;28;20135;-39
2023/05/07 05:23:26;;;;;;;4.03;1.58;;;15.00;99.90;;;;;;5032141;28;20033;-41
2023/05/07 05:25:57;;;;;;;3.13;1.30;;;15.10;99.90;;;;;;5031625;28;20049;-41
2023/05/07 05:28:23;;;;;;;3.70;1.50;;;15.10;99.90;;;;;;5031746;28;20032;-41
2023/05/07 05:30:49;;;;;;;4.88;1.40;;;15.10;99.90;;;;;;5032070;28;20407;-40
2023/05/07 05:33:15;;;;;;;2.88;1.50;;;15.10;99.90;;;;;;5032029;28;20105;-40
2023/05/07 05:35:41;;;;;;;3.13;1.77;;;15.10;99.90;;;;;;5031540;28;20458;-39
2023/05/07 05:38:06;;;;;;;3.50;1.40;;;15.10;99.90;;;;;;5031487;28;20026;-40
2023/05/07 05:40:33;;;;;;;3.05;1.45;;;15.10;99.90;;;;;;5031857;28;20037;-40
2023/05/07 05:42:58;;;;;;;5.20;1.60;;;15.10;99.90;;;;;;5031859;28;20025;-40
2023/05/07 05:45:24;;;;;;;2.45;1.30;;;15.20;99.90;;;;;;5031678;28;20505;-41
2023/05/07 05:47:50;;;;;;;3.75;1.40;;;15.20;99.90;;;;;;5031503;28;20680;-40
2023/05/07 05:50:16;;;;;;;1.83;1.40;;;15.10;99.90;;;;;;5031597;28;20030;-39
2023/05/07 05:52:41;;;;;;;2.50;1.30;;;15.20;99.90;;;;;;5031526;28;20017;-39
2023/05/07 05:55:08;;;;;;;4.85;1.55;;;15.20;99.90;;;;;;5031601;28;20018;-41
2023/05/07 05:57:33;;;;;;;3.53;1.70;;;15.20;99.90;;;;;;5031043;28;20025;-40
2023/05/07 06:00:00;;;;;;;2.78;1.40;;;15.20;99.90;;;;;;5031617;28;20071;-40
2023/05/07 06:02:26;;;;;;;2.47;1.70;;;15.20;99.90;;;;;;5031565;28;20080;-40
2023/05/07 06:04:51;;;;;;;2.65;1.73;;;15.20;99.90;;;;;;5031488;28;20430;-39
2023/05/07 06:07:17;;;;;;;2.70;1.52;;;15.30;99.90;;;;;;5030798;28;20108;-39
2023/05/07 06:09:42;;;;;;;2.75;1.50;;;15.30;99.90;;;;;;5031375;28;20482;-40
2023/05/07 06:12:08;;;;;;;1.95;1.20;;;15.30;99.90;;;;;;5031434;28;20024;-40
2023/05/07 06:14:34;;;;;;;4.97;1.77;;;15.30;99.90;;;;;;5031485;28;20561;-42
2023/05/07 06:16:59;;;;;;;4.20;1.48;;;15.30;99.90;;;;;;5030857;28;20510;-40
2023/05/07 06:19:26;;;;;;;2.75;1.40;;;15.30;99.90;;;;;;5031253;28;20071;-40
2023/05/07 06:21:52;;;;;;;1.90;1.60;;;15.30;99.90;;;;;;5030815;28;20032;-40
2023/05/07 06:24:17;;;;;;;3.13;1.40;;;15.30;99.90;;;;;;5030671;28;20026;-39
2023/05/07 06:26:43;;;;;;;4.50;2.53;;;15.30;99.90;;;;;;5030517;28;20049;-39
2023/05/07 06:29:08;;;;;;;6.60;2.47;;;15.30;99.90;;;;;;5031027;28;20029;-38
2023/05/07 06:31:34;;;;;;;4.38;2.33;;;15.30;99.90;;;;;;5031023;28;20032;-40
2023/05/07 06:34:01;;;;;;;8.40;2.80;;;15.30;99.90;;;;;;5031019;28;20109;-40
2023/05/07 06:36:28;;;;;;;3.53;2.15;;;15.30;99.90;;;;;;5030268;28;20022;-39
2023/05/07 06:38:53;;;;;;;3.22;1.80;;;15.30;99.90;;;;;;5031015;28;20427;-39
2023/05/07 06:41:20;;;;;;;2.97;2.25;;;15.30;99.90;;;;;;5031005;28;20471;-42
2023/05/07 06:43:45;;;;;;;3.85;2.88;;;15.40;99.90;;;;;;5030937;28;20022;-39
2023/05/07 06:46:11;;;;;;;4.72;2.50;;;15.40;99.90;;;;;;5030355;28;20422;-40
2023/05/07 06:48:37;;;;;;;2.85;2.08;;;15.40;99.90;;;;;;5030755;28;20434;-41
2023/05/07 06:51:02;;;;;;;4.18;2.17;;;15.40;99.90;;;;;;5031261;28;20029;-41
2023/05/07 06:53:30;;;;;;;2.42;1.90;;;15.40;99.90;;;;;;5030889;28;20100;-40
2023/05/07 06:55:56;;;;;;;3.38;2.15;;;15.40;99.90;;;;;;5030363;28;20021;-40
2023/05/07 06:58:21;;;;;;;3.10;1.95;;;15.40;99.90;;;;;;5031011;28;20094;-39
2023/05/07 07:00:47;;;;;;;2.45;1.70;;;15.40;99.90;;;;;;5030825;28;20038;-40
2023/05/07 07:03:13;;;;;;;2.58;1.80;;;15.40;99.90;;;;;;5030873;28;20040;-41
2023/05/07 07:05:40;;;;;;;2.63;1.90;;;15.40;99.90;;;;;;5030519;28;20483;-36
2023/05/07 07:08:05;;;;;;;2.47;1.85;;;15.40;99.90;;;;;;5030295;28;20032;-40
2023/05/07 07:10:31;;;;;;;2.63;1.83;;;15.40;99.90;;;;;;5030686;28;20029;-40
2023/05/07 07:12:57;;;;;;;3.13;1.80;;;15.40;99.90;;;;;;5030954;28;20025;-40
2023/05/07 07:15:24;;;;;;;3.53;2.08;;;15.40;99.90;;;;;;5030669;28;20826;-40
2023/05/07 07:17:50;;;;;;;2.88;1.70;;;15.40;99.90;;;;;;5030168;28;20403;-39
2023/05/07 07:20:16;;;;;;;2.28;1.77;;;15.40;99.90;;;;;;5030509;28;20033;-40
2023/05/07 07:22:41;;;;;;;2.95;1.90;;;15.40;99.90;;;;;;5030649;28;20041;-40
2023/05/07 07:25:07;;;;;;;2.60;1.90;;;15.40;99.90;;;;;;5030479;28;20041;-40
2023/05/07 07:27:33;;;;;;;2.72;1.95;;;15.50;99.90;;;;;;5030043;28;20029;-39
2023/05/07 07:29:59;;;;;;;2.88;1.85;;;15.40;99.90;;;;;;5030407;28;20394;-39
2023/05/07 07:32:25;;;;;;;3.05;2.05;;;15.40;99.90;;;;;;5030476;28;20079;-39
2023/05/07 07:34:51;;;;;;;2.08;1.70;;;15.50;99.90;;;;;;5032454;28;20021;-40
2023/05/07 07:37:16;;;;;;;2.42;1.70;;;15.50;99.90;;;;;;5034136;28;20095;-39
2023/05/07 07:39:42;;;;;;;2.95;1.60;;;15.50;99.90;;;;;;5034192;28;20032;-40
2023/05/07 07:42:07;;;;;;;1.70;1.50;;;15.50;99.90;;;;;;5034183;28;20479;-40
2023/05/07 07:44:33;;;;;;;2.53;1.88;;;15.50;99.90;;;;;;5034238;28;20034;-39
2023/05/07 07:46:59;;;;;;;2.70;1.90;;;15.50;99.90;;;;;;5033566;28;20483;-40
2023/05/07 07:49:24;;;;;;;2.70;1.70;;;15.50;99.90;;;;;;5033893;28;20040;-40
2023/05/07 07:51:51;;;;;;;2.55;1.95;;;15.50;99.90;;;;;;5034035;28;20029;-40
2023/05/07 07:54:16;;;;;;;2.00;1.50;;;15.50;99.90;;;;;;5033988;28;20486;-41
2023/05/07 07:56:42;;;;;;;2.45;1.70;;;15.50;99.90;;;;;;5033348;28;20041;-40
2023/05/07 07:59:07;;;;;;;3.78;1.63;;;15.50;99.90;;;;;;5033769;28;20022;-39
2023/05/07 08:01:33;;;;;;;2.60;1.55;;;15.50;99.90;;;;;;5033770;28;20033;-40
2023/05/07 08:03:59;;;;;;;3.20;1.67;;;15.50;99.90;;;;;;5033685;28;20394;-40
2023/05/07 08:06:27;;;;;;;1.95;1.63;;;15.50;99.90;;;;;;5033329;28;20124;-39
2023/05/07 08:08:53;;;;;;;2.40;1.70;;;15.50;99.90;;;;;;5033631;28;20034;-40
2023/05/07 08:11:19;;;;;;;2.42;1.63;;;15.60;99.90;;;;;;5033657;28;20032;-41
2023/05/07 08:13:45;;;;;;;1.73;1.55;;;15.60;99.90;;;;;;5033611;28;20519;-40
2023/05/07 08:16:11;;;;;;;2.10;1.70;;;15.60;99.90;;;;;;5032978;28;20161;-42
2023/05/07 08:18:37;;;;;;;2.38;1.42;;;15.60;99.90;;;;;;5033409;28;20080;-40
2023/05/07 08:21:03;;;;;;;1.65;1.30;;;15.60;99.90;;;;;;5033501;28;20491;-39
2023/05/07 08:23:28;;;;;;;1.80;1.50;;;15.60;99.90;;;;;;5033398;28;20032;-39
2023/05/07 08:25:54;;;;;;;2.85;1.60;;;15.60;99.90;;;;;;5032902;28;20021;-39
2023/05/07 08:28:21;;;;;;;2.42;1.40;;;15.70;99.90;;;;;;5033102;28;20044;-40
2023/05/07 08:30:47;;;;;;;3.63;1.80;;;15.60;99.90;;;;;;5033208;28;20447;-40
2023/05/07 08:33:12;;;;;;;1.88;1.40;;;15.70;99.90;;;;;;5033033;28;20106;-39
2023/05/07 08:35:38;;;;;;;2.40;1.67;;;15.70;99.90;;;;;;5032901;28;20040;-39
2023/05/07 08:38:04;;;;;;;2.80;1.90;;;15.70;99.90;;;;;;5032632;28;20018;-40
2023/05/07 08:40:36;;;;;;;2.05;1.80;;;15.60;99.90;;;;;;5033083;28;20032;-40
2023/05/07 08:43:02;;;;;;;3.45;1.73;;;15.70;99.90;;;;;;5033072;28;20104;-40
2023/05/07 08:45:30;;;;;;;2.72;1.70;;;15.70;99.90;;;;;;5031906;28;20398;-39
2023/05/07 08:48:02;;;;;;;1.88;1.58;;;15.70;99.90;;;;;;5032359;28;20035;-40
2023/05/07 08:50:27;;;;;;;2.72;1.90;;;15.70;99.90;;;;;;5032850;28;20033;-39
2023/05/07 08:52:53;;;;;;;2.53;1.50;;;15.70;99.90;;;;;;5032921;28;20030;-41
2023/05/07 08:55:20;;;;;;;3.83;1.70;;;15.70;99.90;;;;;;5032898;28;20022;-40
2023/05/07 08:57:46;;;;;;;2.33;1.63;;;15.70;99.90;;;;;;5032698;28;20017;-43
2023/05/07 09:00:13;;;;;;;2.75;1.63;;;15.70;99.90;;;;;;5032643;28;20021;-40
2023/05/07 09:02:38;;;;;;;3.83;1.42;;;15.70;99.90;;;;;;5032676;28;20494;-41
2023/05/07 09:05:04;;;;;;;3.55;1.60;;;15.70;99.90;;;;;;5032615;28;20033;-40
2023/05/07 09:07:31;;;;;;;2.00;1.65;;;15.80;99.90;;;;;;5032058;28;20088;-41
2023/05/07 09:09:57;;;;;;;2.25;1.40;;;15.70;99.90;;;;;;5032421;28;20423;-40
2023/05/07 09:12:23;;;;;;;5.22;1.70;;;15.80;99.90;;;;;;5032515;28;20028;-41
2023/05/07 09:14:49;;;;;;;3.33;1.45;;;15.70;99.90;;;;;;5032206;28;20029;-39
2023/05/07 09:17:16;;;;;;;2.13;1.35;;;15.80;99.90;;;;;;5031737;28;20021;-40
2023/05/07 09:19:47;;;;;;;2.63;1.70;;;15.80;99.90;;;;;;5032394;28;20026;-39
2023/05/07 09:22:13;;;;;;;2.58;1.50;;;15.80;99.90;;;;;;5032272;28;20088;-39
2023/05/07 09:24:39;;;;;;;1.90;1.40;;;15.80;99.90;;;;;;5032247;28;20037;-40
2023/05/07 09:27:05;;;;;;;5.22;1.83;;;15.80;99.90;;;;;;5031604;28;20029;-40
2023/05/07 09:29:37;;;;;;;2.45;1.13;;;15.80;99.90;;;;;;5031919;28;20037;-40
2023/05/07 09:32:05;;;;;;;2.67;1.50;;;15.80;99.90;;;;;;5032248;28;20100;-39
2023/05/07 09:34:31;;;;;;;4.30;1.30;;;15.80;99.90;;;;;;5032024;28;20038;-39
2023/05/07 09:37:01;;;;;;;1.60;1.33;;;15.80;99.90;;;;;;5031352;28;20036;-40
2023/05/07 09:39:39;;;;;;;2.17;1.40;;;15.90;99.90;;;;;;5031973;28;20029;-39
2023/05/07 09:42:05;;;;;;;1.98;1.50;;;15.90;99.90;;;;;;5031924;28;20045;-40
2023/05/07 09:44:32;;;;;;;1.77;1.33;;;15.90;99.90;;;;;;5031788;28;20119;-40
2023/05/07 09:47:00;;;;;;;2.88;1.58;;;15.90;99.90;;;;;;5031310;28;20475;-40
2023/05/07 09:49:29;;;;;;;1.98;1.33;;;15.90;99.90;;;;;;5031728;28;20056;-39
2023/05/07 09:51:56;;;;;;;1.92;1.23;;;15.90;99.90;;;;;;5031733;28;20018;-39
2023/05/07 09:54:22;;;;;;;1.95;1.60;;;15.90;99.90;;;;;;5031530;28;20021;-39
2023/05/07 09:56:52;;;;;;;2.72;1.42;;;15.90;99.90;;;;;;5031036;28;20022;-39
2023/05/07 09:59:20;;;;;;;2.60;1.45;;;15.90;99.90;;;;;;5031628;28;20021;-38
2023/05/07 10:01:46;;;;;;;2.53;1.55;;;15.90;99.90;;;;;;5031590;28;20060;-40
2023/05/07 10:04:12;;;;;;;2.38;1.40;;;15.90;99.90;;;;;;5031580;28;20439;-39
2023/05/07 10:06:38;;;;;;;3.25;1.40;;;15.90;99.90;;;;;;5030976;28;20075;-40
2023/05/07 10:09:05;;;;;;;1.88;1.30;;;15.90;99.90;;;;;;5031295;28;20028;-39
2023/05/07 10:11:35;;;;;;;2.45;1.55;;;15.90;99.90;;;;;;5031472;28;20474;-40
2023/05/07 10:14:03;;;;;;;2.05;1.50;;;15.90;99.90;;;;;;5031366;28;20022;-40
2023/05/07 10:16:35;;;;;;;4.38;1.50;;;16.00;99.90;;;;;;5030816;28;20049;-40
2023/05/07 10:19:05;;;;;;;2.58;1.38;;;16.00;99.90;;;;;;5031261;28;20021;-40
2023/05/07 10:21:36;;;;;;;3.17;1.52;;;16.00;99.90;;;;;;5031151;28;20033;-39
2023/05/07 10:24:13;;;;;;;1.73;1.48;;;16.00;99.90;;;;;;5031426;28;20510;-39
2023/05/07 10:26:42;;;;;;;2.28;1.50;;;16.00;99.90;;;;;;5030674;28;20083;-40
2023/05/07 10:29:17;;;;;;;2.85;1.58;;;16.00;99.90;;;;;;5030881;28;20245;-40
2023/05/07 10:31:49;;;;;;;2.08;1.33;;;16.00;99.90;;;;;;5031131;28;20030;-41
2023/05/07 10:34:20;;;;;;;1.40;1.20;;;16.00;99.90;;;;;;5031065;28;20025;-40
2023/05/07 10:36:47;;;;;;;2.63;1.55;;;16.10;99.90;;;;;;5030462;28;20029;-40
2023/05/07 10:39:13;;;;;;;1.90;1.45;;;16.00;99.90;;;;;;5031041;28;20037;-39
2023/05/07 10:41:39;;;;;;;1.98;1.35;;;16.00;99.90;;;;;;5031510;28;20104;-40
2023/05/07 10:44:05;;;;;;;2.10;1.30;;;16.10;99.90;;;;;;5030916;28;20033;-40
2023/05/07 10:46:35;;;;;;;2.40;1.50;;;16.10;99.90;;;;;;5030267;28;20034;-39
2023/05/07 10:49:00;;;;;;;2.83;1.50;;;16.10;99.90;;;;;;5030887;28;20053;-40
2023/05/07 10:51:27;;;;;;;2.47;1.60;;;16.10;99.90;;;;;;5030922;28;20072;-39
2023/05/07 10:54:19;;;;;;;1.83;1.45;;;16.10;99.90;;;;;;5030925;28;20022;-39
2023/05/07 10:56:47;;;;;;;3.33;1.45;;;16.00;99.90;;;;;;5021367;28;20068;-39
2023/05/07 10:59:30;;;;;;;2.40;1.25;;;16.10;99.90;;;;;;5030812;28;20091;-40
2023/05/07 11:02:03;;;;;;;2.45;1.55;;;16.10;99.90;;;;;;5031064;28;20087;-42
2023/05/07 11:04:31;;;;;;;3.10;1.65;;;16.10;99.90;;;;;;5031003;28;20507;-40
2023/05/07 11:07:09;;;;;;;4.25;1.55;;;16.10;99.90;;;;;;5030374;28;20032;-40
2023/05/07 11:09:55;;;;;;;2.83;1.55;;;16.10;99.90;;;;;;5032629;28;20029;-40
2023/05/07 11:12:36;;;;;;;3.30;1.60;;;16.10;99.90;;;;;;5034775;28;20369;-40
2023/05/07 11:15:04;;;;;;;2.63;1.75;;;16.10;99.90;;;;;;5034593;28;20542;-40
2023/05/07 11:17:34;;;;;;;2.63;1.40;;;16.10;99.90;;;;;;5034160;28;20029;-40
2023/05/07 11:20:00;;;;;;;5.63;1.70;;;16.10;99.90;;;;;;5034631;28;20394;-42
2023/05/07 11:22:32;;;;;;;1.75;1.58;;;16.10;99.90;;;;;;5034823;28;20045;-39
2023/05/07 11:25:05;;;;;;;2.78;1.80;;;16.10;99.90;;;;;;5034555;28;20030;-40
2023/05/07 11:27:31;;;;;;;2.35;1.67;;;16.10;99.90;;;;;;5033912;28;20026;-39
2023/05/07 11:29:57;;;;;;;3.78;1.38;;;16.10;99.90;;;;;;5034370;28;20053;-40
2023/05/07 11:32:27;;;;;;;2.42;1.60;;;16.10;99.90;;;;;;5034289;28;20529;-39
2023/05/07 11:34:58;;;;;;;2.63;1.30;;;16.10;99.90;;;;;;5034388;28;20025;-40
2023/05/07 11:37:26;;;;;;;4.82;1.48;;;16.10;99.90;;;;;;5033768;28;20032;-39
2023/05/07 11:40:06;;;;;;;3.30;1.45;;;16.10;99.90;;;;;;5034291;28;20021;-40
2023/05/07 11:42:39;;;;;;;2.72;1.58;;;16.10;99.90;;;;;;5034184;28;20017;-40
2023/05/07 11:45:07;;;;;;;3.08;1.70;;;16.10;99.90;;;;;;5034263;28;20033;-40
2023/05/07 11:47:34;;;;;;;4.72;1.60;;;16.10;99.90;;;;;;5033606;28;20034;-39
2023/05/07 11:50:07;;;;;;;2.30;1.40;;;16.10;99.90;;;;;;5034071;28;20021;-39
2023/05/07 11:52:34;;;;;;;2.10;1.35;;;16.10;99.90;;;;;;5034475;28;20128;-39
2023/05/07 11:55:01;;;;;;;3.40;1.60;;;16.10;99.90;;;;;;5033980;28;20017;-40
2023/05/07 11:57:28;;;;;;;2.63;1.52;;;16.10;99.90;;;;;;5033428;28;20055;-40
2023/05/07 11:59:58;;;;;;;4.20;1.75;;;16.10;99.90;;;;;;5034009;28;20514;-40
2023/05/07 12:02:25;;;;;;;4.82;1.80;;;16.10;99.90;;;;;;5033891;28;20099;-40
2023/05/07 12:04:51;;;;;;;2.00;1.60;;;16.10;99.90;;;;;;5033877;28;20040;-40
2023/05/07 12:07:18;;;;;;;3.40;1.65;;;16.10;99.90;;;;;;5033243;28;20025;-40
2023/05/07 12:09:45;;;;;;;2.92;1.80;;;16.10;99.90;;;;;;5033533;28;20025;-40
2023/05/07 12:12:11;;;;;;;2.65;1.63;;;16.10;99.90;;;;;;5033934;28;20100;-39
2023/05/07 12:14:40;;;;;;;2.33;1.73;;;16.10;99.90;;;;;;5033571;28;20025;-39
2023/05/07 12:17:11;;;;;;;3.00;1.67;;;16.10;99.90;;;;;;5032951;28;20497;-40
2023/05/07 12:19:38;;;;;;;3.53;1.77;;;16.10;99.90;;;;;;5033535;28;20120;-41
2023/05/07 12:22:05;;;;;;;8.80;2.30;;;16.10;99.90;;;;;;5032378;28;20037;-40
2023/05/07 12:24:46;;;;;;;3.80;2.00;;;16.20;99.90;;;;;;5033293;28;20040;-40
2023/05/07 12:27:16;;;;;;;5.13;2.05;;;16.20;99.90;;;;;;5032741;28;20025;-41
2023/05/07 12:29:47;;;;;;;6.60;2.20;;;16.20;99.90;;;;;;5033287;28;20017;-39
2023/05/07 12:32:17;;;;;;;4.80;2.20;;;16.20;99.90;;;;;;5033307;28;20032;-39
2023/05/07 12:34:43;;;;;;;5.53;2.03;;;16.20;99.90;;;;;;5033069;28;20060;-39
2023/05/07 12:37:09;;;;;;;4.18;1.90;;;16.20;99.90;;;;;;5032473;28;20036;-40
2023/05/07 12:39:35;;;;;;;4.63;2.40;;;16.20;99.90;;;;;;5033101;28;20029;-40
2023/05/07 12:42:01;;;;;;;5.07;1.95;;;16.20;99.90;;;;;;5033041;28;20034;-39
2023/05/07 12:44:32;;;;;;;3.33;1.80;;;16.20;99.90;;;;;;5033077;28;20026;-40
2023/05/07 12:47:01;;;;;;;3.47;2.35;;;16.20;99.90;;;;;;5032402;28;20387;-39